Jill Reinauer — WCW9655 — position and weather

sailwx.info

Track history (hours):
 
Tides and Currents Weather Stations Pressure Air Temp Water Temp Dewpoint Dewpoint Depression Visibility Wind Speed Wind Dir Waves Ship Positions

Jill Reinauer

Owner: REINAUER TRANSPORTATION CO.,LLC., STATEN ISLAND, NY. More information available from US FCC via Universal Licensing System and Coast Guard Vessel Documentation Center.

Last reported at 2018-Apr-22 13:45 UTC. Time now 2018-Apr-22 18:15 UTC.
Position N 40°38' W 074°12'.

Length 30 m; draft 4 m.

Type: Tug. MMSI: 366727190.

Date/timePositionNaut miles runAvg speedWind from/ knotsBaromVisibWave heightAir tempDewpointWater temp
2018-Apr-22 13:45N 40°38' W 074°12'2 8.7
2018-Apr-22 13:29N 40°39' W 074°09'2 3.3
2018-Apr-22 13:01N 40°39' W 074°07'0 0.1
2018-Apr-22 12:30N 40°39' W 074°07'0 0.0
2018-Apr-22 12:00N 40°39' W 074°07'0 0.5
2018-Apr-22 11:30N 40°39' W 074°07'0 0.6
2018-Apr-22 10:48N 40°38' W 074°08'0 0.0
2018-Apr-22 10:22N 40°38' W 074°08'0 0.0
2018-Apr-22 09:58N 40°38' W 074°08'0 0.0
2018-Apr-22 09:30N 40°38' W 074°08'0 0.0
2018-Apr-22 09:00N 40°38' W 074°08'0 0.0
2018-Apr-22 08:25N 40°38' W 074°08'0 0.0
2018-Apr-22 07:15N 40°38' W 074°08'0 1.6
2018-Apr-22 07:00N 40°39' W 074°08'4 7.8
2018-Apr-22 06:30N 40°36' W 074°12'4 3.4
2018-Apr-22 05:13N 40°32' W 074°15'0 0.1
2018-Apr-22 05:00N 40°32' W 074°15'0 0.0
2018-Apr-22 04:29N 40°32' W 074°15'0 0.0
2018-Apr-22 04:00N 40°32' W 074°15'0 0.0
2018-Apr-22 03:30N 40°32' W 074°15'0 0.0
2018-Apr-22 03:00N 40°32' W 074°15'0 0.0
2018-Apr-22 02:30N 40°32' W 074°15'0 0.0
2018-Apr-22 01:59N 40°32' W 074°15'0 0.0
2018-Apr-22 01:30N 40°32' W 074°15'0 0.7
2018-Apr-22 00:56N 40°33' W 074°15'0 0.1
2018-Apr-22 00:28N 40°33' W 074°15'1 1.6
2018-Apr-21 23:43N 40°31' W 074°15'1 1.6
2018-Apr-21 23:17N 40°32' W 074°15'0 0.3
2018-Apr-21 22:51N 40°32' W 074°15'0 0.0
2018-Apr-21 22:27N 40°32' W 074°15'0 0.0
2018-Apr-21 21:58N 40°32' W 074°15'0 0.0
2018-Apr-21 21:29N 40°32' W 074°15'0 0.0
2018-Apr-21 21:00N 40°32' W 074°15'0 0.0
2018-Apr-21 20:30N 40°32' W 074°15'0 0.8
2018-Apr-21 20:00N 40°33' W 074°15'0 0.6
2018-Apr-21 19:30N 40°33' W 074°15'0 0.0
2018-Apr-21 18:59N 40°33' W 074°15'5 5.9
2018-Apr-21 18:11N 40°37' W 074°12'2 8.0
2018-Apr-21 17:58N 40°39' W 074°11'3 4.0
2018-Apr-21 17:19N 40°38' W 074°08'0 0.0
2018-Apr-21 17:00N 40°38' W 074°08'0 0.0
2018-Apr-21 16:30N 40°38' W 074°08'0 0.0
2018-Apr-21 16:00N 40°38' W 074°08'0 0.0
2018-Apr-21 15:30N 40°38' W 074°08'0 0.0
2018-Apr-21 15:00N 40°38' W 074°08'1 1.2
2018-Apr-21 14:30N 40°39' W 074°09'3 6.0
2018-Apr-21 14:00N 40°38' W 074°12'0 0.9
2018-Apr-21 13:30N 40°38' W 074°12'3 5.6
2018-Apr-21 13:00N 40°39' W 074°08'1 1.0
2018-Apr-21 12:28N 40°38' W 074°08'0 0.0
2018-Apr-21 12:00N 40°38' W 074°08'0 0.0
2018-Apr-21 11:30N 40°38' W 074°08'0 0.0
2018-Apr-21 11:00N 40°38' W 074°08'0 0.0
2018-Apr-21 10:30N 40°38' W 074°08'0 0.0
2018-Apr-21 10:00N 40°38' W 074°08'0 0.0
2018-Apr-21 09:30N 40°38' W 074°08'0 0.0
2018-Apr-21 09:00N 40°38' W 074°08'0 0.0
2018-Apr-21 08:24N 40°38' W 074°08'0 0.0
2018-Apr-21 08:00N 40°38' W 074°08'0 0.0
2018-Apr-21 07:30N 40°38' W 074°08'0 0.0
2018-Apr-21 07:00N 40°38' W 074°08'0 0.0
2018-Apr-21 06:30N 40°38' W 074°08'0 0.0
2018-Apr-21 06:00N 40°38' W 074°08'0 0.1
2018-Apr-21 05:30N 40°38' W 074°08'0 0.0
2018-Apr-21 05:00N 40°38' W 074°08'1 1.9
2018-Apr-21 04:30N 40°39' W 074°07'0 0.0
2018-Apr-21 04:00N 40°39' W 074°07'2 4.9
2018-Apr-21 03:30N 40°39' W 074°04'2 4.1
2018-Apr-21 03:00N 40°40' W 074°01'1 2.9
2018-Apr-21 02:30N 40°41' W 074°00'3 5.3
2018-Apr-21 02:00N 40°43' W 073°58'3 5.5
2018-Apr-21 01:30N 40°46' W 073°57'3 5.9
2018-Apr-21 00:59N 40°48' W 073°54'4 7.4
2018-Apr-21 00:30N 40°48' W 073°49'3 6.4
2018-Apr-20 23:57N 40°51' W 073°46'4 7.8
2018-Apr-20 23:24N 40°54' W 073°43'7 0.2
2018-Apr-19 15:58N 40°48' W 073°47'3 7.2
2018-Apr-19 15:29N 40°48' W 073°52'4 7.1
2018-Apr-19 14:59N 40°47' W 073°56'3 7.1
2018-Apr-19 14:30N 40°44' W 073°58'4 7.9
2018-Apr-19 14:00N 40°41' W 074°02'3 5.8
2018-Apr-19 13:30N 40°39' W 074°05'2 5.0
2018-Apr-19 13:00N 40°39' W 074°08'2 4.3
2018-Apr-19 12:30N 40°39' W 074°11'2 3.2
2018-Apr-19 12:00N 40°38' W 074°12'0 0.1
2018-Apr-19 11:30N 40°38' W 074°12'0 0.0
2018-Apr-19 11:00N 40°38' W 074°12'0 0.0
2018-Apr-19 10:30N 40°38' W 074°12'0 0.0
2018-Apr-19 10:00N 40°38' W 074°12'0 0.0
2018-Apr-19 09:30N 40°38' W 074°12'0 0.3
2018-Apr-19 09:00N 40°38' W 074°12'0 0.0
2018-Apr-19 08:29N 40°38' W 074°12'0 0.0
2018-Apr-19 08:00N 40°38' W 074°12'0 0.0
2018-Apr-19 07:30N 40°38' W 074°12'2 4.8
2018-Apr-19 07:00N 40°39' W 074°09'1 1.5
2018-Apr-19 06:15N 40°38' W 074°08'0 0.0
2018-Apr-19 06:00N 40°38' W 074°08'0 0.0
2018-Apr-19 05:19N 40°38' W 074°08'0 0.0
2018-Apr-19 04:53N 40°38' W 074°08'0 0.0
2018-Apr-19 04:30N 40°38' W 074°08'1 2.0
2018-Apr-19 04:00N 40°39' W 074°07'0 0.0
2018-Apr-19 03:30N 40°39' W 074°07'0 0.0
2018-Apr-19 03:00N 40°39' W 074°07'0 0.0
2018-Apr-19 02:30N 40°39' W 074°07'0 0.3
2018-Apr-19 02:00N 40°39' W 074°07'1 1.8
2018-Apr-19 01:30N 40°38' W 074°08'0 0.0
2018-Apr-19 01:00N 40°38' W 074°08'0 0.0
2018-Apr-19 00:30N 40°38' W 074°08'0 0.0
2018-Apr-19 00:00N 40°38' W 074°08'0 0.0
2018-Apr-18 22:51N 40°38' W 074°08'0 0.0
2018-Apr-18 22:30N 40°38' W 074°08'0 0.0
2018-Apr-18 22:00N 40°38' W 074°08'0 0.0
2018-Apr-18 21:30N 40°38' W 074°08'0 0.0
2018-Apr-18 21:00N 40°38' W 074°08'0 0.0
2018-Apr-18 20:30N 40°38' W 074°08'0 0.0
2018-Apr-18 20:00N 40°38' W 074°08'2 3.5
2018-Apr-18 19:30N 40°39' W 074°10'3 5.2
2018-Apr-18 18:58N 40°37' W 074°12'0 0.0
2018-Apr-18 18:26N 40°37' W 074°12'3 7.6
2018-Apr-18 18:00N 40°39' W 074°09'1 1.6
2018-Apr-18 17:30N 40°38' W 074°08'0 0.1
2018-Apr-18 17:01N 40°38' W 074°08'4 7.8
2018-Apr-18 16:30N 40°40' W 074°03'1 2.1
2018-Apr-18 16:00N 40°40' W 074°02'1 2.2
2018-Apr-18 15:30N 40°39' W 074°03'1 2.6
2018-Apr-18 15:00N 40°40' W 074°01'0 0.0
2018-Apr-18 14:30N 40°40' W 074°01'0 0.0
2018-Apr-18 14:00N 40°40' W 074°01'0 0.5
2018-Apr-18 13:30N 40°40' W 074°01'1 2.6
2018-Apr-18 13:00N 40°41' W 074°00'3 5.1
2018-Apr-18 12:30N 40°43' W 073°58'3 5.4
2018-Apr-18 12:00N 40°46' W 073°57'3 5.1
2018-Apr-18 11:30N 40°48' W 073°55'4 6.9
2018-Apr-18 11:00N 40°48' W 073°50'3 6.0
2018-Apr-18 10:30N 40°50' W 073°47'4 7.9
2018-Apr-18 10:00N 40°53' W 073°43'3 0.1
2018-Apr-16 17:12N 40°50' W 073°46'0 0.1
2018-Apr-16 17:00N 40°50' W 073°46'0 0.2
2018-Apr-16 16:30N 40°50' W 073°46'2 3.9
2018-Apr-16 15:56N 40°48' W 073°47'1 2.6
2018-Apr-16 15:28N 40°49' W 073°49'0 0.4
2018-Apr-16 14:59N 40°48' W 073°49'2 3.9
2018-Apr-16 14:30N 40°48' W 073°51'3 6.3
2018-Apr-16 13:58N 40°47' W 073°55'3 6.8
2018-Apr-16 13:30N 40°45' W 073°58'3 5.3
2018-Apr-16 13:00N 40°42' W 073°60'3 6.7
2018-Apr-16 12:30N 40°40' W 074°03'2 4.3
2018-Apr-16 12:00N 40°39' W 074°05'2 4.1
2018-Apr-16 11:30N 40°39' W 074°08'3 5.7
2018-Apr-16 11:00N 40°38' W 074°12'3 2.6
2018-Apr-16 09:45N 40°35' W 074°13'0 1.5
2018-Apr-16 09:27N 40°36' W 074°12'4 8.5
2018-Apr-16 09:00N 40°39' W 074°10'2 4.9
2018-Apr-16 08:30N 40°39' W 074°07'0 0.0
2018-Apr-16 08:00N 40°39' W 074°07'0 0.8
2018-Apr-16 07:30N 40°39' W 074°07'0 0.1
2018-Apr-16 07:00N 40°39' W 074°07'1 1.2
2018-Apr-16 06:30N 40°38' W 074°08'0 0.1
2018-Apr-16 06:00N 40°38' W 074°08'0 0.0
2018-Apr-16 05:29N 40°38' W 074°08'0 0.0
2018-Apr-16 05:00N 40°38' W 074°08'0 0.0
2018-Apr-16 04:29N 40°38' W 074°08'0 0.0
2018-Apr-16 04:00N 40°38' W 074°08'0 0.0
2018-Apr-16 03:29N 40°38' W 074°08'0 0.0
2018-Apr-16 03:00N 40°38' W 074°08'0 0.0
2018-Apr-16 02:30N 40°38' W 074°08'0 0.0
2018-Apr-16 02:00N 40°38' W 074°08'0 0.0
2018-Apr-16 01:30N 40°38' W 074°08'0 0.0
2018-Apr-16 00:58N 40°38' W 074°08'0 0.0
2018-Apr-16 00:30N 40°38' W 074°08'0 0.0
2018-Apr-16 00:00N 40°38' W 074°08'0 0.0
2018-Apr-15 23:30N 40°38' W 074°08'0 0.0
2018-Apr-15 22:59N 40°38' W 074°08'0 0.0
2018-Apr-15 22:30N 40°38' W 074°08'0 0.0
2018-Apr-15 21:59N 40°38' W 074°08'0 0.0
2018-Apr-15 21:30N 40°38' W 074°08'2 4.0
2018-Apr-15 21:00N 40°39' W 074°10'2 3.4
2018-Apr-15 20:29N 40°38' W 074°12'0 0.0
2018-Apr-15 20:00N 40°38' W 074°12'0 0.0
2018-Apr-15 19:30N 40°38' W 074°12'0 0.0
2018-Apr-15 19:00N 40°38' W 074°12'3 7.1
2018-Apr-15 18:30N 40°39' W 074°08'1 2.0
2018-Apr-15 18:00N 40°39' W 074°06'3 6.4
2018-Apr-15 17:30N 40°40' W 074°03'1 2.4
2018-Apr-15 17:00N 40°40' W 074°01'1 2.6
2018-Apr-15 16:30N 40°40' W 074°03'4 8.0
2018-Apr-15 16:00N 40°38' W 074°08'0 0.0
2018-Apr-15 15:30N 40°38' W 074°08'0 0.0
2018-Apr-15 15:00N 40°38' W 074°08'0 0.0
2018-Apr-15 14:30N 40°38' W 074°08'0 0.0
2018-Apr-15 14:00N 40°38' W 074°08'0 0.0
2018-Apr-15 13:30N 40°38' W 074°08'0 0.0
2018-Apr-15 13:00N 40°38' W 074°08'0 0.0
2018-Apr-15 12:30N 40°38' W 074°08'0 0.1
2018-Apr-15 12:00N 40°38' W 074°08'0 0.1
2018-Apr-15 11:30N 40°38' W 074°08'0 0.0
2018-Apr-15 11:00N 40°38' W 074°08'0 0.0
2018-Apr-15 10:30N 40°38' W 074°08'0 0.0
2018-Apr-15 10:00N 40°38' W 074°08'0 0.0
2018-Apr-15 09:30N 40°38' W 074°08'0 0.0
2018-Apr-15 09:00N 40°38' W 074°08'0 0.0
2018-Apr-15 08:30N 40°38' W 074°08'0 0.0
2018-Apr-15 08:00N 40°38' W 074°08'0 0.0
2018-Apr-15 07:30N 40°38' W 074°08'0 0.0
2018-Apr-15 07:00N 40°38' W 074°08'0 0.0
2018-Apr-15 06:30N 40°38' W 074°08'0 0.0
2018-Apr-15 06:00N 40°38' W 074°08'0 0.0
2018-Apr-15 05:30N 40°38' W 074°08'0 0.0
2018-Apr-15 05:00N 40°38' W 074°08'0 0.0
2018-Apr-15 04:30N 40°38' W 074°08'0 0.0
2018-Apr-15 04:00N 40°38' W 074°08'0 0.0
2018-Apr-15 03:30N 40°38' W 074°08'0 0.0
2018-Apr-15 03:00N 40°38' W 074°08'0 0.0
2018-Apr-15 02:30N 40°38' W 074°08'0 0.0
2018-Apr-15 02:00N 40°38' W 074°08'0 0.0
2018-Apr-15 01:30N 40°38' W 074°08'0 0.0
2018-Apr-15 01:00N 40°38' W 074°08'0 0.0
2018-Apr-15 00:30N 40°38' W 074°08'0 0.0
2018-Apr-15 00:00N 40°38' W 074°08'0 0.0
2018-Apr-14 23:30N 40°38' W 074°08'0 0.0
2018-Apr-14 23:00N 40°38' W 074°08'1 2.8
2018-Apr-14 22:30N 40°39' W 074°09'4 2.4
2018-Apr-14 21:00N 40°36' W 074°12'0 0.0
2018-Apr-14 20:30N 40°36' W 074°12'0 0.0
2018-Apr-14 20:00N 40°36' W 074°12'0 0.3
2018-Apr-14 19:30N 40°36' W 074°12'4 7.8
2018-Apr-14 18:58N 40°32' W 074°15'2 1.3
2018-Apr-14 17:42N 40°33' W 074°14'2 8.8
2018-Apr-14 17:29N 40°35' W 074°13'1 1.6
2018-Apr-14 16:58N 40°36' W 074°12'0 0.0
2018-Apr-14 16:30N 40°36' W 074°12'0 0.0
2018-Apr-14 16:00N 40°36' W 074°12'0 0.0
2018-Apr-14 15:30N 40°36' W 074°12'0 0.0
2018-Apr-14 14:59N 40°36' W 074°12'0 0.0
2018-Apr-14 14:30N 40°36' W 074°12'0 0.0
2018-Apr-14 14:00N 40°36' W 074°12'1 1.2
2018-Apr-14 13:26N 40°35' W 074°13'0 0.0
2018-Apr-14 11:45N 40°35' W 074°13'0 0.1
2018-Apr-14 11:30N 40°35' W 074°13'2 4.7
2018-Apr-14 10:58N 40°38' W 074°12'4 8.9
2018-Apr-14 10:30N 40°39' W 074°07'5 9.5
2018-Apr-14 10:00N 40°41' W 074°01'4 7.2
2018-Apr-14 09:30N 40°43' W 073°58'4 6.9
2018-Apr-14 08:59N 40°47' W 073°56'2 4.3
2018-Apr-14 08:30N 40°48' W 073°54'1 2.3
2018-Apr-14 08:00N 40°47' W 073°55'5 9.5
2018-Apr-14 07:30N 40°43' W 073°58'5 9.1
2018-Apr-14 07:00N 40°40' W 074°03'4 7.1
2018-Apr-14 06:30N 40°39' W 074°07'1 1.4
2018-Apr-14 06:00N 40°39' W 074°06'0 0.6
2018-Apr-14 05:19N 40°39' W 074°07'0 1.3
2018-Apr-14 05:00N 40°39' W 074°07'1 1.2
2018-Apr-14 04:30N 40°38' W 074°08'1 2.8
2018-Apr-14 04:00N 40°38' W 074°10'3 6.2
2018-Apr-14 03:30N 40°36' W 074°12'4 8.0
2018-Apr-14 03:00N 40°33' W 074°15'1 0.9
2018-Apr-14 02:19N 40°32' W 074°15'0 0.1
2018-Apr-14 02:00N 40°32' W 074°15'0 0.1
2018-Apr-14 01:30N 40°32' W 074°15'4 5.9
2018-Apr-14 00:51N 40°35' W 074°12'3 7.8
2018-Apr-14 00:30N 40°38' W 074°12'2 3.9
2018-Apr-14 00:00N 40°38' W 074°09'0 0.1
2018-Apr-13 23:30N 40°38' W 074°09'1 2.5
2018-Apr-13 22:58N 40°38' W 074°08'0 0.0
2018-Apr-13 22:30N 40°38' W 074°08'0 0.0
2018-Apr-13 22:00N 40°38' W 074°08'0 0.0
2018-Apr-13 21:30N 40°38' W 074°08'0 0.0
2018-Apr-13 21:00N 40°38' W 074°08'2 4.6
2018-Apr-13 20:30N 40°39' W 074°05'3 6.2
2018-Apr-13 20:00N 40°40' W 074°01'0 0.0
2018-Apr-13 19:30N 40°40' W 074°01'0 0.0
2018-Apr-13 19:00N 40°40' W 074°01'0 0.0
2018-Apr-13 18:30N 40°40' W 074°01'0 0.2
2018-Apr-13 18:00N 40°40' W 074°01'0 0.2
2018-Apr-13 17:30N 40°40' W 074°01'0 0.0
2018-Apr-13 17:00N 40°40' W 074°01'0 0.0
2018-Apr-13 16:30N 40°40' W 074°01'0 0.0
2018-Apr-13 16:00N 40°40' W 074°01'0 0.0
2018-Apr-13 15:30N 40°40' W 074°01'0 0.8
2018-Apr-13 15:00N 40°40' W 074°01'0 0.8
2018-Apr-13 14:29N 40°40' W 074°01'0 0.0
2018-Apr-13 14:00N 40°40' W 074°01'0 0.0
2018-Apr-13 13:30N 40°40' W 074°01'0 0.0
2018-Apr-13 13:00N 40°40' W 074°01'0 0.1
2018-Apr-13 12:30N 40°40' W 074°01'0 0.2
2018-Apr-13 12:00N 40°40' W 074°01'1 2.9
2018-Apr-13 11:30N 40°42' W 074°02'4 7.6
2018-Apr-13 11:00N 40°45' W 074°01'4 7.4
2018-Apr-13 10:30N 40°49' W 073°58'4 7.5
2018-Apr-13 10:00N 40°52' W 073°56'4 7.9
2018-Apr-13 09:29N 40°56' W 073°55'  
Track history (hours):
 
Tides and Currents Weather Stations Pressure Air Temp Water Temp Dewpoint Dewpoint Depression Visibility Wind Speed Wind Dir Waves Ship Positions

Jill Reinauer

Owner: REINAUER TRANSPORTATION CO.,LLC., STATEN ISLAND, NY. More information available from US FCC via Universal Licensing System and Coast Guard Vessel Documentation Center.

Last reported at 2018-Apr-22 13:45 UTC. Time now 2018-Apr-22 18:15 UTC.
Position N 40°38' W 074°12'.

Length 30 m; draft 4 m.

Type: Tug. MMSI: 366727190.

Date/timePositionNaut miles runAvg speedWind from/ knotsBaromVisibWave heightAir tempDewpointWater temp
2018-Apr-22 13:45N 40°38' W 074°12'2 8.7
2018-Apr-22 13:29N 40°39' W 074°09'2 3.3
2018-Apr-22 13:01N 40°39' W 074°07'0 0.1
2018-Apr-22 12:30N 40°39' W 074°07'0 0.0
2018-Apr-22 12:00N 40°39' W 074°07'0 0.5
2018-Apr-22 11:30N 40°39' W 074°07'0 0.6
2018-Apr-22 10:48N 40°38' W 074°08'0 0.0
2018-Apr-22 10:22N 40°38' W 074°08'0 0.0
2018-Apr-22 09:58N 40°38' W 074°08'0 0.0
2018-Apr-22 09:30N 40°38' W 074°08'0 0.0
2018-Apr-22 09:00N 40°38' W 074°08'0 0.0
2018-Apr-22 08:25N 40°38' W 074°08'0 0.0
2018-Apr-22 07:15N 40°38' W 074°08'0 1.6
2018-Apr-22 07:00N 40°39' W 074°08'4 7.8
2018-Apr-22 06:30N 40°36' W 074°12'4 3.4
2018-Apr-22 05:13N 40°32' W 074°15'0 0.1
2018-Apr-22 05:00N 40°32' W 074°15'0 0.0
2018-Apr-22 04:29N 40°32' W 074°15'0 0.0
2018-Apr-22 04:00N 40°32' W 074°15'0 0.0
2018-Apr-22 03:30N 40°32' W 074°15'0 0.0
2018-Apr-22 03:00N 40°32' W 074°15'0 0.0
2018-Apr-22 02:30N 40°32' W 074°15'0 0.0
2018-Apr-22 01:59N 40°32' W 074°15'0 0.0
2018-Apr-22 01:30N 40°32' W 074°15'0 0.7
2018-Apr-22 00:56N 40°33' W 074°15'0 0.1
2018-Apr-22 00:28N 40°33' W 074°15'1 1.6
2018-Apr-21 23:43N 40°31' W 074°15'1 1.6
2018-Apr-21 23:17N 40°32' W 074°15'0 0.3
2018-Apr-21 22:51N 40°32' W 074°15'0 0.0
2018-Apr-21 22:27N 40°32' W 074°15'0 0.0
2018-Apr-21 21:58N 40°32' W 074°15'0 0.0
2018-Apr-21 21:29N 40°32' W 074°15'0 0.0
2018-Apr-21 21:00N 40°32' W 074°15'0 0.0
2018-Apr-21 20:30N 40°32' W 074°15'0 0.8
2018-Apr-21 20:00N 40°33' W 074°15'0 0.6
2018-Apr-21 19:30N 40°33' W 074°15'0 0.0
2018-Apr-21 18:59N 40°33' W 074°15'5 5.9
2018-Apr-21 18:11N 40°37' W 074°12'2 8.0
2018-Apr-21 17:58N 40°39' W 074°11'3 4.0
2018-Apr-21 17:19N 40°38' W 074°08'0 0.0
2018-Apr-21 17:00N 40°38' W 074°08'0 0.0
2018-Apr-21 16:30N 40°38' W 074°08'0 0.0
2018-Apr-21 16:00N 40°38' W 074°08'0 0.0
2018-Apr-21 15:30N 40°38' W 074°08'0 0.0
2018-Apr-21 15:00N 40°38' W 074°08'1 1.2
2018-Apr-21 14:30N 40°39' W 074°09'3 6.0
2018-Apr-21 14:00N 40°38' W 074°12'0 0.9
2018-Apr-21 13:30N 40°38' W 074°12'3 5.6
2018-Apr-21 13:00N 40°39' W 074°08'1 1.0
2018-Apr-21 12:28N 40°38' W 074°08'0 0.0
2018-Apr-21 12:00N 40°38' W 074°08'0 0.0
2018-Apr-21 11:30N 40°38' W 074°08'0 0.0
2018-Apr-21 11:00N 40°38' W 074°08'0 0.0
2018-Apr-21 10:30N 40°38' W 074°08'0 0.0
2018-Apr-21 10:00N 40°38' W 074°08'0 0.0
2018-Apr-21 09:30N 40°38' W 074°08'0 0.0
2018-Apr-21 09:00N 40°38' W 074°08'0 0.0
2018-Apr-21 08:24N 40°38' W 074°08'0 0.0
2018-Apr-21 08:00N 40°38' W 074°08'0 0.0
2018-Apr-21 07:30N 40°38' W 074°08'0 0.0
2018-Apr-21 07:00N 40°38' W 074°08'0 0.0
2018-Apr-21 06:30N 40°38' W 074°08'0 0.0
2018-Apr-21 06:00N 40°38' W 074°08'0 0.1
2018-Apr-21 05:30N 40°38' W 074°08'0 0.0
2018-Apr-21 05:00N 40°38' W 074°08'1 1.9
2018-Apr-21 04:30N 40°39' W 074°07'0 0.0
2018-Apr-21 04:00N 40°39' W 074°07'2 4.9
2018-Apr-21 03:30N 40°39' W 074°04'2 4.1
2018-Apr-21 03:00N 40°40' W 074°01'1 2.9
2018-Apr-21 02:30N 40°41' W 074°00'3 5.3
2018-Apr-21 02:00N 40°43' W 073°58'3 5.5
2018-Apr-21 01:30N 40°46' W 073°57'3 5.9
2018-Apr-21 00:59N 40°48' W 073°54'4 7.4
2018-Apr-21 00:30N 40°48' W 073°49'3 6.4
2018-Apr-20 23:57N 40°51' W 073°46'4 7.8
2018-Apr-20 23:24N 40°54' W 073°43'7 0.2
2018-Apr-19 15:58N 40°48' W 073°47'3 7.2
2018-Apr-19 15:29N 40°48' W 073°52'4 7.1
2018-Apr-19 14:59N 40°47' W 073°56'3 7.1
2018-Apr-19 14:30N 40°44' W 073°58'4 7.9
2018-Apr-19 14:00N 40°41' W 074°02'3 5.8
2018-Apr-19 13:30N 40°39' W 074°05'2 5.0
2018-Apr-19 13:00N 40°39' W 074°08'2 4.3
2018-Apr-19 12:30N 40°39' W 074°11'2 3.2
2018-Apr-19 12:00N 40°38' W 074°12'0 0.1
2018-Apr-19 11:30N 40°38' W 074°12'0 0.0
2018-Apr-19 11:00N 40°38' W 074°12'0 0.0
2018-Apr-19 10:30N 40°38' W 074°12'0 0.0
2018-Apr-19 10:00N 40°38' W 074°12'0 0.0
2018-Apr-19 09:30N 40°38' W 074°12'0 0.3
2018-Apr-19 09:00N 40°38' W 074°12'0 0.0
2018-Apr-19 08:29N 40°38' W 074°12'0 0.0
2018-Apr-19 08:00N 40°38' W 074°12'0 0.0
2018-Apr-19 07:30N 40°38' W 074°12'2 4.8
2018-Apr-19 07:00N 40°39' W 074°09'1 1.5
2018-Apr-19 06:15N 40°38' W 074°08'0 0.0
2018-Apr-19 06:00N 40°38' W 074°08'0 0.0
2018-Apr-19 05:19N 40°38' W 074°08'0 0.0
2018-Apr-19 04:53N 40°38' W 074°08'0 0.0
2018-Apr-19 04:30N 40°38' W 074°08'1 2.0
2018-Apr-19 04:00N 40°39' W 074°07'0 0.0
2018-Apr-19 03:30N 40°39' W 074°07'0 0.0
2018-Apr-19 03:00N 40°39' W 074°07'0 0.0
2018-Apr-19 02:30N 40°39' W 074°07'0 0.3
2018-Apr-19 02:00N 40°39' W 074°07'1 1.8
2018-Apr-19 01:30N 40°38' W 074°08'0 0.0
2018-Apr-19 01:00N 40°38' W 074°08'0 0.0
2018-Apr-19 00:30N 40°38' W 074°08'0 0.0
2018-Apr-19 00:00N 40°38' W 074°08'0 0.0
2018-Apr-18 22:51N 40°38' W 074°08'0 0.0
2018-Apr-18 22:30N 40°38' W 074°08'0 0.0
2018-Apr-18 22:00N 40°38' W 074°08'0 0.0
2018-Apr-18 21:30N 40°38' W 074°08'0 0.0
2018-Apr-18 21:00N 40°38' W 074°08'0 0.0
2018-Apr-18 20:30N 40°38' W 074°08'0 0.0
2018-Apr-18 20:00N 40°38' W 074°08'2 3.5
2018-Apr-18 19:30N 40°39' W 074°10'3 5.2
2018-Apr-18 18:58N 40°37' W 074°12'0 0.0
2018-Apr-18 18:26N 40°37' W 074°12'3 7.6
2018-Apr-18 18:00N 40°39' W 074°09'1 1.6
2018-Apr-18 17:30N 40°38' W 074°08'0 0.1
2018-Apr-18 17:01N 40°38' W 074°08'4 7.8
2018-Apr-18 16:30N 40°40' W 074°03'1 2.1
2018-Apr-18 16:00N 40°40' W 074°02'1 2.2
2018-Apr-18 15:30N 40°39' W 074°03'1 2.6
2018-Apr-18 15:00N 40°40' W 074°01'0 0.0
2018-Apr-18 14:30N 40°40' W 074°01'0 0.0
2018-Apr-18 14:00N 40°40' W 074°01'0 0.5
2018-Apr-18 13:30N 40°40' W 074°01'1 2.6
2018-Apr-18 13:00N 40°41' W 074°00'3 5.1
2018-Apr-18 12:30N 40°43' W 073°58'3 5.4
2018-Apr-18 12:00N 40°46' W 073°57'3 5.1
2018-Apr-18 11:30N 40°48' W 073°55'4 6.9
2018-Apr-18 11:00N 40°48' W 073°50'3 6.0
2018-Apr-18 10:30N 40°50' W 073°47'4 7.9
2018-Apr-18 10:00N 40°53' W 073°43'3 0.1
2018-Apr-16 17:12N 40°50' W 073°46'0 0.1
2018-Apr-16 17:00N 40°50' W 073°46'0 0.2
2018-Apr-16 16:30N 40°50' W 073°46'2 3.9
2018-Apr-16 15:56N 40°48' W 073°47'1 2.6
2018-Apr-16 15:28N 40°49' W 073°49'0 0.4
2018-Apr-16 14:59N 40°48' W 073°49'2 3.9
2018-Apr-16 14:30N 40°48' W 073°51'3 6.3
2018-Apr-16 13:58N 40°47' W 073°55'3 6.8
2018-Apr-16 13:30N 40°45' W 073°58'3 5.3
2018-Apr-16 13:00N 40°42' W 073°60'3 6.7
2018-Apr-16 12:30N 40°40' W 074°03'2 4.3
2018-Apr-16 12:00N 40°39' W 074°05'2 4.1
2018-Apr-16 11:30N 40°39' W 074°08'3 5.7
2018-Apr-16 11:00N 40°38' W 074°12'3 2.6
2018-Apr-16 09:45N 40°35' W 074°13'0 1.5
2018-Apr-16 09:27N 40°36' W 074°12'4 8.5
2018-Apr-16 09:00N 40°39' W 074°10'2 4.9
2018-Apr-16 08:30N 40°39' W 074°07'0 0.0
2018-Apr-16 08:00N 40°39' W 074°07'0 0.8
2018-Apr-16 07:30N 40°39' W 074°07'0 0.1
2018-Apr-16 07:00N 40°39' W 074°07'1 1.2
2018-Apr-16 06:30N 40°38' W 074°08'0 0.1
2018-Apr-16 06:00N 40°38' W 074°08'0 0.0
2018-Apr-16 05:29N 40°38' W 074°08'0 0.0
2018-Apr-16 05:00N 40°38' W 074°08'0 0.0
2018-Apr-16 04:29N 40°38' W 074°08'0 0.0
2018-Apr-16 04:00N 40°38' W 074°08'0 0.0
2018-Apr-16 03:29N 40°38' W 074°08'0 0.0
2018-Apr-16 03:00N 40°38' W 074°08'0 0.0
2018-Apr-16 02:30N 40°38' W 074°08'0 0.0
2018-Apr-16 02:00N 40°38' W 074°08'0 0.0
2018-Apr-16 01:30N 40°38' W 074°08'0 0.0
2018-Apr-16 00:58N 40°38' W 074°08'0 0.0
2018-Apr-16 00:30N 40°38' W 074°08'0 0.0
2018-Apr-16 00:00N 40°38' W 074°08'0 0.0
2018-Apr-15 23:30N 40°38' W 074°08'0 0.0
2018-Apr-15 22:59N 40°38' W 074°08'0 0.0
2018-Apr-15 22:30N 40°38' W 074°08'0 0.0
2018-Apr-15 21:59N 40°38' W 074°08'0 0.0
2018-Apr-15 21:30N 40°38' W 074°08'2 4.0
2018-Apr-15 21:00N 40°39' W 074°10'2 3.4
2018-Apr-15 20:29N 40°38' W 074°12'0 0.0
2018-Apr-15 20:00N 40°38' W 074°12'0 0.0
2018-Apr-15 19:30N 40°38' W 074°12'0 0.0
2018-Apr-15 19:00N 40°38' W 074°12'3 7.1
2018-Apr-15 18:30N 40°39' W 074°08'1 2.0
2018-Apr-15 18:00N 40°39' W 074°06'3 6.4
2018-Apr-15 17:30N 40°40' W 074°03'1 2.4
2018-Apr-15 17:00N 40°40' W 074°01'1 2.6
2018-Apr-15 16:30N 40°40' W 074°03'4 8.0
2018-Apr-15 16:00N 40°38' W 074°08'0 0.0
2018-Apr-15 15:30N 40°38' W 074°08'0 0.0
2018-Apr-15 15:00N 40°38' W 074°08'0 0.0
2018-Apr-15 14:30N 40°38' W 074°08'0 0.0
2018-Apr-15 14:00N 40°38' W 074°08'0 0.0
2018-Apr-15 13:30N 40°38' W 074°08'0 0.0
2018-Apr-15 13:00N 40°38' W 074°08'0 0.0
2018-Apr-15 12:30N 40°38' W 074°08'0 0.1
2018-Apr-15 12:00N 40°38' W 074°08'0 0.1
2018-Apr-15 11:30N 40°38' W 074°08'0 0.0
2018-Apr-15 11:00N 40°38' W 074°08'0 0.0
2018-Apr-15 10:30N 40°38' W 074°08'0 0.0
2018-Apr-15 10:00N 40°38' W 074°08'0 0.0
2018-Apr-15 09:30N 40°38' W 074°08'0 0.0
2018-Apr-15 09:00N 40°38' W 074°08'0 0.0
2018-Apr-15 08:30N 40°38' W 074°08'0 0.0
2018-Apr-15 08:00N 40°38' W 074°08'0 0.0
2018-Apr-15 07:30N 40°38' W 074°08'0 0.0
2018-Apr-15 07:00N 40°38' W 074°08'0 0.0
2018-Apr-15 06:30N 40°38' W 074°08'0 0.0
2018-Apr-15 06:00N 40°38' W 074°08'0 0.0
2018-Apr-15 05:30N 40°38' W 074°08'0 0.0
2018-Apr-15 05:00N 40°38' W 074°08'0 0.0
2018-Apr-15 04:30N 40°38' W 074°08'0 0.0
2018-Apr-15 04:00N 40°38' W 074°08'0 0.0
2018-Apr-15 03:30N 40°38' W 074°08'0 0.0
2018-Apr-15 03:00N 40°38' W 074°08'0 0.0
2018-Apr-15 02:30N 40°38' W 074°08'0 0.0
2018-Apr-15 02:00N 40°38' W 074°08'0 0.0
2018-Apr-15 01:30N 40°38' W 074°08'0 0.0
2018-Apr-15 01:00N 40°38' W 074°08'0 0.0
2018-Apr-15 00:30N 40°38' W 074°08'0 0.0
2018-Apr-15 00:00N 40°38' W 074°08'0 0.0
2018-Apr-14 23:30N 40°38' W 074°08'0 0.0
2018-Apr-14 23:00N 40°38' W 074°08'1 2.8
2018-Apr-14 22:30N 40°39' W 074°09'4 2.4
2018-Apr-14 21:00N 40°36' W 074°12'0 0.0
2018-Apr-14 20:30N 40°36' W 074°12'0 0.0
2018-Apr-14 20:00N 40°36' W 074°12'0 0.3
2018-Apr-14 19:30N 40°36' W 074°12'4 7.8
2018-Apr-14 18:58N 40°32' W 074°15'2 1.3
2018-Apr-14 17:42N 40°33' W 074°14'2 8.8
2018-Apr-14 17:29N 40°35' W 074°13'1 1.6
2018-Apr-14 16:58N 40°36' W 074°12'0 0.0
2018-Apr-14 16:30N 40°36' W 074°12'0 0.0
2018-Apr-14 16:00N 40°36' W 074°12'0 0.0
2018-Apr-14 15:30N 40°36' W 074°12'0 0.0
2018-Apr-14 14:59N 40°36' W 074°12'0 0.0
2018-Apr-14 14:30N 40°36' W 074°12'0 0.0
2018-Apr-14 14:00N 40°36' W 074°12'1 1.2
2018-Apr-14 13:26N 40°35' W 074°13'0 0.0
2018-Apr-14 11:45N 40°35' W 074°13'0 0.1
2018-Apr-14 11:30N 40°35' W 074°13'2 4.7
2018-Apr-14 10:58N 40°38' W 074°12'4 8.9
2018-Apr-14 10:30N 40°39' W 074°07'5 9.5
2018-Apr-14 10:00N 40°41' W 074°01'4 7.2
2018-Apr-14 09:30N 40°43' W 073°58'4 6.9
2018-Apr-14 08:59N 40°47' W 073°56'2 4.3
2018-Apr-14 08:30N 40°48' W 073°54'1 2.3
2018-Apr-14 08:00N 40°47' W 073°55'5 9.5
2018-Apr-14 07:30N 40°43' W 073°58'5 9.1
2018-Apr-14 07:00N 40°40' W 074°03'4 7.1
2018-Apr-14 06:30N 40°39' W 074°07'1 1.4
2018-Apr-14 06:00N 40°39' W 074°06'0 0.6
2018-Apr-14 05:19N 40°39' W 074°07'0 1.3
2018-Apr-14 05:00N 40°39' W 074°07'1 1.2
2018-Apr-14 04:30N 40°38' W 074°08'1 2.8
2018-Apr-14 04:00N 40°38' W 074°10'3 6.2
2018-Apr-14 03:30N 40°36' W 074°12'4 8.0
2018-Apr-14 03:00N 40°33' W 074°15'1 0.9
2018-Apr-14 02:19N 40°32' W 074°15'0 0.1
2018-Apr-14 02:00N 40°32' W 074°15'0 0.1
2018-Apr-14 01:30N 40°32' W 074°15'4 5.9
2018-Apr-14 00:51N 40°35' W 074°12'3 7.8
2018-Apr-14 00:30N 40°38' W 074°12'2 3.9
2018-Apr-14 00:00N 40°38' W 074°09'0 0.1
2018-Apr-13 23:30N 40°38' W 074°09'1 2.5
2018-Apr-13 22:58N 40°38' W 074°08'0 0.0
2018-Apr-13 22:30N 40°38' W 074°08'0 0.0
2018-Apr-13 22:00N 40°38' W 074°08'0 0.0
2018-Apr-13 21:30N 40°38' W 074°08'0 0.0
2018-Apr-13 21:00N 40°38' W 074°08'2 4.6
2018-Apr-13 20:30N 40°39' W 074°05'3 6.2
2018-Apr-13 20:00N 40°40' W 074°01'0 0.0
2018-Apr-13 19:30N 40°40' W 074°01'0 0.0
2018-Apr-13 19:00N 40°40' W 074°01'0 0.0
2018-Apr-13 18:30N 40°40' W 074°01'0 0.2
2018-Apr-13 18:00N 40°40' W 074°01'0 0.2
2018-Apr-13 17:30N 40°40' W 074°01'0 0.0
2018-Apr-13 17:00N 40°40' W 074°01'0 0.0
2018-Apr-13 16:30N 40°40' W 074°01'0 0.0
2018-Apr-13 16:00N 40°40' W 074°01'0 0.0
2018-Apr-13 15:30N 40°40' W 074°01'0 0.8
2018-Apr-13 15:00N 40°40' W 074°01'0 0.8
2018-Apr-13 14:29N 40°40' W 074°01'0 0.0
2018-Apr-13 14:00N 40°40' W 074°01'0 0.0
2018-Apr-13 13:30N 40°40' W 074°01'0 0.0
2018-Apr-13 13:00N 40°40' W 074°01'0 0.1
2018-Apr-13 12:30N 40°40' W 074°01'0 0.2
2018-Apr-13 12:00N 40°40' W 074°01'1 2.9
2018-Apr-13 11:30N 40°42' W 074°02'4 7.6
2018-Apr-13 11:00N 40°45' W 074°01'4 7.4
2018-Apr-13 10:30N 40°49' W 073°58'4 7.5
2018-Apr-13 10:00N 40°52' W 073°56'4 7.9
2018-Apr-13 09:29N 40°56' W 073°55'  

Dump ship's entire track history